sensor_id;sensor_type;location;lat;lon;timestamp;temperature;humidity
67641;SHT31;54434;50.096;20.082;2023-04-24T00:01:59;10.33;65.35
67641;SHT31;54434;50.096;20.082;2023-04-24T00:04:38;10.31;65.13
67641;SHT31;54434;50.096;20.082;2023-04-24T00:07:16;10.29;65.35
67641;SHT31;54434;50.096;20.082;2023-04-24T00:09:54;10.25;65.56
67641;SHT31;54434;50.096;20.082;2023-04-24T00:12:30;10.22;65.92
67641;SHT31;54434;50.096;20.082;2023-04-24T00:15:10;10.17;66.12
67641;SHT31;54434;50.096;20.082;2023-04-24T00:17:46;10.12;66.13
67641;SHT31;54434;50.096;20.082;2023-04-24T00:20:23;10.07;66.19
67641;SHT31;54434;50.096;20.082;2023-04-24T00:23:00;10.02;66.32
67641;SHT31;54434;50.096;20.082;2023-04-24T00:25:37;10.01;66.37
67641;SHT31;54434;50.096;20.082;2023-04-24T00:28:13;9.96;66.69
67641;SHT31;54434;50.096;20.082;2023-04-24T00:30:50;9.91;66.87
67641;SHT31;54434;50.096;20.082;2023-04-24T00:33:26;9.87;67.34
67641;SHT31;54434;50.096;20.082;2023-04-24T00:36:03;9.81;67.41
67641;SHT31;54434;50.096;20.082;2023-04-24T00:38:40;9.77;67.52
67641;SHT31;54434;50.096;20.082;2023-04-24T00:41:16;9.75;67.60
67641;SHT31;54434;50.096;20.082;2023-04-24T00:43:53;9.70;67.80
67641;SHT31;54434;50.096;20.082;2023-04-24T00:46:32;9.64;68.04
67641;SHT31;54434;50.096;20.082;2023-04-24T00:49:09;9.60;68.14
67641;SHT31;54434;50.096;20.082;2023-04-24T00:51:46;9.55;68.26
67641;SHT31;54434;50.096;20.082;2023-04-24T00:54:23;9.49;68.26
67641;SHT31;54434;50.096;20.082;2023-04-24T00:56:59;9.47;68.25
67641;SHT31;54434;50.096;20.082;2023-04-24T00:59:36;9.44;68.31
67641;SHT31;54434;50.096;20.082;2023-04-24T01:02:13;9.41;68.56
67641;SHT31;54434;50.096;20.082;2023-04-24T01:04:51;9.38;68.58
67641;SHT31;54434;50.096;20.082;2023-04-24T01:07:28;9.32;68.79
67641;SHT31;54434;50.096;20.082;2023-04-24T01:10:06;9.25;69.09
67641;SHT31;54434;50.096;20.082;2023-04-24T01:12:45;9.18;69.48
67641;SHT31;54434;50.096;20.082;2023-04-24T01:15:22;9.11;69.63
67641;SHT31;54434;50.096;20.082;2023-04-24T01:17:58;9.06;69.61
67641;SHT31;54434;50.096;20.082;2023-04-24T01:20:35;8.99;69.94
67641;SHT31;54434;50.096;20.082;2023-04-24T01:23:15;8.91;70.05
67641;SHT31;54434;50.096;20.082;2023-04-24T01:25:52;8.85;70.12
67641;SHT31;54434;50.096;20.082;2023-04-24T01:28:30;8.80;70.20
67641;SHT31;54434;50.096;20.082;2023-04-24T01:31:09;8.74;70.46
67641;SHT31;54434;50.096;20.082;2023-04-24T01:33:45;8.67;70.95
67641;SHT31;54434;50.096;20.082;2023-04-24T01:36:22;8.61;71.18
67641;SHT31;54434;50.096;20.082;2023-04-24T01:39:03;8.55;71.40
67641;SHT31;54434;50.096;20.082;2023-04-24T01:41:39;8.49;71.50
67641;SHT31;54434;50.096;20.082;2023-04-24T01:44:16;8.42;71.69
67641;SHT31;54434;50.096;20.082;2023-04-24T01:46:53;8.37;71.80
67641;SHT31;54434;50.096;20.082;2023-04-24T01:49:30;8.34;71.81
67641;SHT31;54434;50.096;20.082;2023-04-24T01:52:09;8.30;71.78
67641;SHT31;54434;50.096;20.082;2023-04-24T01:54:46;8.27;71.81
67641;SHT31;54434;50.096;20.082;2023-04-24T01:57:22;8.22;71.94
67641;SHT31;54434;50.096;20.082;2023-04-24T01:59:59;8.14;72.15
67641;SHT31;54434;50.096;20.082;2023-04-24T02:02:43;8.11;72.38
67641;SHT31;54434;50.096;20.082;2023-04-24T02:05:21;8.08;72.31
67641;SHT31;54434;50.096;20.082;2023-04-24T02:07:57;8.05;72.34
67641;SHT31;54434;50.096;20.082;2023-04-24T02:10:34;8.01;72.38
67641;SHT31;54434;50.096;20.082;2023-04-24T02:13:10;7.96;72.54
67641;SHT31;54434;50.096;20.082;2023-04-24T02:15:47;7.93;72.87
67641;SHT31;54434;50.096;20.082;2023-04-24T02:18:23;7.87;73.10
67641;SHT31;54434;50.096;20.082;2023-04-24T02:21:01;7.84;73.09
67641;SHT31;54434;50.096;20.082;2023-04-24T02:23:39;7.81;73.27
67641;SHT31;54434;50.096;20.082;2023-04-24T02:26:17;7.80;73.30
67641;SHT31;54434;50.096;20.082;2023-04-24T02:28:55;7.78;73.55
67641;SHT31;54434;50.096;20.082;2023-04-24T02:31:32;7.74;73.63
67641;SHT31;54434;50.096;20.082;2023-04-24T02:34:08;7.72;73.79
67641;SHT31;54434;50.096;20.082;2023-04-24T02:36:45;7.69;74.20
67641;SHT31;54434;50.096;20.082;2023-04-24T02:39:21;7.63;74.38
67641;SHT31;54434;50.096;20.082;2023-04-24T02:41:58;7.57;74.28
67641;SHT31;54434;50.096;20.082;2023-04-24T02:44:34;7.57;74.10
67641;SHT31;54434;50.096;20.082;2023-04-24T02:47:11;7.54;73.91
67641;SHT31;54434;50.096;20.082;2023-04-24T02:49:47;7.53;73.91
67641;SHT31;54434;50.096;20.082;2023-04-24T02:52:24;7.51;73.93
67641;SHT31;54434;50.096;20.082;2023-04-24T02:55:01;7.49;73.89
67641;SHT31;54434;50.096;20.082;2023-04-24T02:57:39;7.45;73.88
67641;SHT31;54434;50.096;20.082;2023-04-24T03:00:17;7.43;73.88
67641;SHT31;54434;50.096;20.082;2023-04-24T03:02:54;7.41;73.92
67641;SHT31;54434;50.096;20.082;2023-04-24T03:05:31;7.37;73.90
67641;SHT31;54434;50.096;20.082;2023-04-24T03:08:08;7.35;73.76
67641;SHT31;54434;50.096;20.082;2023-04-24T03:10:44;7.33;73.66
67641;SHT31;54434;50.096;20.082;2023-04-24T03:13:21;7.30;73.96
67641;SHT31;54434;50.096;20.082;2023-04-24T03:15:57;7.22;74.42
67641;SHT31;54434;50.096;20.082;2023-04-24T03:18:34;7.18;74.37
67641;SHT31;54434;50.096;20.082;2023-04-24T03:21:11;7.15;74.26
67641;SHT31;54434;50.096;20.082;2023-04-24T03:23:48;7.14;74.07
67641;SHT31;54434;50.096;20.082;2023-04-24T03:26:25;7.11;74.16
67641;SHT31;54434;50.096;20.082;2023-04-24T03:29:57;7.07;74.51
67641;SHT31;54434;50.096;20.082;2023-04-24T03:32:47;7.05;74.55
67641;SHT31;54434;50.096;20.082;2023-04-24T03:35:28;7.03;74.42
67641;SHT31;54434;50.096;20.082;2023-04-24T03:38:06;7.02;74.34
67641;SHT31;54434;50.096;20.082;2023-04-24T03:41:01;7.01;74.47
67641;SHT31;54434;50.096;20.082;2023-04-24T03:43:42;7.01;74.34
67641;SHT31;54434;50.096;20.082;2023-04-24T03:46:19;7.01;74.25
67641;SHT31;54434;50.096;20.082;2023-04-24T03:48:58;7.02;74.25
67641;SHT31;54434;50.096;20.082;2023-04-24T03:51:40;7.03;74.20
67641;SHT31;54434;50.096;20.082;2023-04-24T03:54:28;7.06;74.52
67641;SHT31;54434;50.096;20.082;2023-04-24T03:57:04;7.08;74.64
67641;SHT31;54434;50.096;20.082;2023-04-24T03:59:41;7.12;74.43
67641;SHT31;54434;50.096;20.082;2023-04-24T04:02:21;7.21;74.23
67641;SHT31;54434;50.096;20.082;2023-04-24T04:04:57;7.29;74.26
67641;SHT31;54434;50.096;20.082;2023-04-24T04:07:34;7.38;74.46
67641;SHT31;54434;50.096;20.082;2023-04-24T04:10:11;7.57;74.65
67641;SHT31;54434;50.096;20.082;2023-04-24T04:12:48;7.78;74.63
67641;SHT31;54434;50.096;20.082;2023-04-24T04:15:25;7.91;74.21
67641;SHT31;54434;50.096;20.082;2023-04-24T04:18:01;8.04;73.94
67641;SHT31;54434;50.096;20.082;2023-04-24T04:20:38;8.16;73.97
67641;SHT31;54434;50.096;20.082;2023-04-24T04:23:16;8.28;73.64
67641;SHT31;54434;50.096;20.082;2023-04-24T04:26:06;8.60;73.71
67641;SHT31;54434;50.096;20.082;2023-04-24T04:29:17;9.22;72.66
67641;SHT31;54434;50.096;20.082;2023-04-24T04:31:55;9.78;71.40
67641;SHT31;54434;50.096;20.082;2023-04-24T04:34:33;10.35;70.34
67641;SHT31;54434;50.096;20.082;2023-04-24T04:37:11;10.95;67.66
67641;SHT31;54434;50.096;20.082;2023-04-24T04:40:38;11.70;67.97
67641;SHT31;54434;50.096;20.082;2023-04-24T04:43:16;12.30;66.82
67641;SHT31;54434;50.096;20.082;2023-04-24T04:45:55;12.94;65.08
67641;SHT31;54434;50.096;20.082;2023-04-24T04:48:32;13.57;63.43
67641;SHT31;54434;50.096;20.082;2023-04-24T04:51:09;14.21;60.14
67641;SHT31;54434;50.096;20.082;2023-04-24T04:53:46;14.80;58.67
67641;SHT31;54434;50.096;20.082;2023-04-24T04:56:22;15.36;56.69
67641;SHT31;54434;50.096;20.082;2023-04-24T04:59:00;15.84;54.37
67641;SHT31;54434;50.096;20.082;2023-04-24T05:01:40;16.37;52.71
67641;SHT31;54434;50.096;20.082;2023-04-24T05:04:17;16.89;51.23
67641;SHT31;54434;50.096;20.082;2023-04-24T05:06:53;17.41;49.43
67641;SHT31;54434;50.096;20.082;2023-04-24T05:09:31;17.87;48.25
67641;SHT31;54434;50.096;20.082;2023-04-24T05:12:09;18.30;47.96
67641;SHT31;54434;50.096;20.082;2023-04-24T05:14:51;18.65;45.97
67641;SHT31;54434;50.096;20.082;2023-04-24T05:17:29;18.94;45.29
67641;SHT31;54434;50.096;20.082;2023-04-24T05:20:08;19.21;44.93
67641;SHT31;54434;50.096;20.082;2023-04-24T05:22:47;19.75;43.90
67641;SHT31;54434;50.096;20.082;2023-04-24T05:25:24;20.14;43.45
67641;SHT31;54434;50.096;20.082;2023-04-24T05:28:09;20.42;42.32
67641;SHT31;54434;50.096;20.082;2023-04-24T05:30:48;20.64;41.90
67641;SHT31;54434;50.096;20.082;2023-04-24T05:33:24;20.91;41.59
67641;SHT31;54434;50.096;20.082;2023-04-24T05:36:02;21.03;40.52
67641;SHT31;54434;50.096;20.082;2023-04-24T05:38:40;21.23;39.89
67641;SHT31;54434;50.096;20.082;2023-04-24T05:41:16;21.21;39.20
67641;SHT31;54434;50.096;20.082;2023-04-24T05:43:53;21.22;39.31
67641;SHT31;54434;50.096;20.082;2023-04-24T05:46:29;21.47;39.68
67641;SHT31;54434;50.096;20.082;2023-04-24T05:49:05;21.98;39.19
67641;SHT31;54434;50.096;20.082;2023-04-24T05:51:42;22.36;38.64
67641;SHT31;54434;50.096;20.082;2023-04-24T05:54:20;22.54;37.68
67641;SHT31;54434;50.096;20.082;2023-04-24T05:56:56;22.75;37.50
67641;SHT31;54434;50.096;20.082;2023-04-24T05:59:45;22.95;36.93
67641;SHT31;54434;50.096;20.082;2023-04-24T06:02:23;23.09;36.82
67641;SHT31;54434;50.096;20.082;2023-04-24T06:05:05;23.34;36.86
67641;SHT31;54434;50.096;20.082;2023-04-24T06:07:41;23.49;36.30
67641;SHT31;54434;50.096;20.082;2023-04-24T06:10:18;23.68;36.31
67641;SHT31;54434;50.096;20.082;2023-04-24T06:12:55;23.90;35.94
67641;SHT31;54434;50.096;20.082;2023-04-24T06:15:34;24.06;35.46
67641;SHT31;54434;50.096;20.082;2023-04-24T06:18:13;24.28;35.26
67641;SHT31;54434;50.096;20.082;2023-04-24T06:20:52;24.40;36.16
67641;SHT31;54434;50.096;20.082;2023-04-24T06:23:28;24.54;35.15
67641;SHT31;54434;50.096;20.082;2023-04-24T06:26:05;24.78;35.39
67641;SHT31;54434;50.096;20.082;2023-04-24T06:28:42;24.96;35.13
67641;SHT31;54434;50.096;20.082;2023-04-24T06:31:19;25.18;34.89
67641;SHT31;54434;50.096;20.082;2023-04-24T06:33:55;25.39;33.35
67641;SHT31;54434;50.096;20.082;2023-04-24T06:36:33;25.54;32.57
67641;SHT31;54434;50.096;20.082;2023-04-24T06:39:11;25.42;33.41
67641;SHT31;54434;50.096;20.082;2023-04-24T06:41:47;25.37;33.75
67641;SHT31;54434;50.096;20.082;2023-04-24T06:44:24;25.47;33.11
67641;SHT31;54434;50.096;20.082;2023-04-24T06:47:00;25.49;32.80
67641;SHT31;54434;50.096;20.082;2023-04-24T06:49:37;25.70;32.07
67641;SHT31;54434;50.096;20.082;2023-04-24T06:52:14;25.89;31.78
67641;SHT31;54434;50.096;20.082;2023-04-24T06:54:51;25.95;31.02
67641;SHT31;54434;50.096;20.082;2023-04-24T06:57:34;26.12;31.05
67641;SHT31;54434;50.096;20.082;2023-04-24T07:00:13;26.28;29.90
67641;SHT31;54434;50.096;20.082;2023-04-24T07:02:50;26.59;29.55
67641;SHT31;54434;50.096;20.082;2023-04-24T07:05:27;26.68;28.68
67641;SHT31;54434;50.096;20.082;2023-04-24T07:08:05;26.56;29.05
67641;SHT31;54434;50.096;20.082;2023-04-24T07:10:43;26.68;29.17
67641;SHT31;54434;50.096;20.082;2023-04-24T07:13:19;26.77;28.99
67641;SHT31;54434;50.096;20.082;2023-04-24T07:15:56;26.88;28.45
67641;SHT31;54434;50.096;20.082;2023-04-24T07:18:32;26.75;28.34
67641;SHT31;54434;50.096;20.082;2023-04-24T07:21:09;26.76;28.96
67641;SHT31;54434;50.096;20.082;2023-04-24T07:23:45;26.92;28.91
67641;SHT31;54434;50.096;20.082;2023-04-24T07:26:22;27.01;28.34
67641;SHT31;54434;50.096;20.082;2023-04-24T07:28:58;27.19;27.55
67641;SHT31;54434;50.096;20.082;2023-04-24T07:31:35;27.48;27.90
67641;SHT31;54434;50.096;20.082;2023-04-24T07:34:12;27.75;28.41
67641;SHT31;54434;50.096;20.082;2023-04-24T07:36:48;27.83;27.26
67641;SHT31;54434;50.096;20.082;2023-04-24T07:39:25;27.89;27.43
67641;SHT31;54434;50.096;20.082;2023-04-24T07:42:02;27.89;26.77
67641;SHT31;54434;50.096;20.082;2023-04-24T07:44:38;27.65;27.11
67641;SHT31;54434;50.096;20.082;2023-04-24T07:47:15;27.58;28.11
67641;SHT31;54434;50.096;20.082;2023-04-24T07:49:51;27.61;27.69
67641;SHT31;54434;50.096;20.082;2023-04-24T07:52:28;27.58;27.68
67641;SHT31;54434;50.096;20.082;2023-04-24T07:55:05;27.68;26.60
67641;SHT31;54434;50.096;20.082;2023-04-24T07:57:42;27.65;26.42
67641;SHT31;54434;50.096;20.082;2023-04-24T08:00:19;27.47;27.16
67641;SHT31;54434;50.096;20.082;2023-04-24T08:02:55;27.44;26.19
67641;SHT31;54434;50.096;20.082;2023-04-24T08:05:32;27.39;26.24
67641;SHT31;54434;50.096;20.082;2023-04-24T08:08:11;27.26;27.16
67641;SHT31;54434;50.096;20.082;2023-04-24T08:10:48;27.26;26.44
67641;SHT31;54434;50.096;20.082;2023-04-24T08:13:25;27.31;25.87
67641;SHT31;54434;50.096;20.082;2023-04-24T08:16:01;27.24;26.34
67641;SHT31;54434;50.096;20.082;2023-04-24T08:18:38;27.17;26.64
67641;SHT31;54434;50.096;20.082;2023-04-24T08:21:14;27.17;26.85
67641;SHT31;54434;50.096;20.082;2023-04-24T08:23:51;26.82;26.36
67641;SHT31;54434;50.096;20.082;2023-04-24T08:26:27;26.50;27.16
67641;SHT31;54434;50.096;20.082;2023-04-24T08:29:04;26.34;26.36
67641;SHT31;54434;50.096;20.082;2023-04-24T08:31:41;26.15;26.48
67641;SHT31;54434;50.096;20.082;2023-04-24T08:34:17;26.24;27.02
67641;SHT31;54434;50.096;20.082;2023-04-24T08:36:54;26.27;26.30
67641;SHT31;54434;50.096;20.082;2023-04-24T08:39:31;26.23;25.71
67641;SHT31;54434;50.096;20.082;2023-04-24T08:42:07;26.11;25.46
67641;SHT31;54434;50.096;20.082;2023-04-24T08:44:47;26.08;26.05
67641;SHT31;54434;50.096;20.082;2023-04-24T08:47:24;25.91;25.74
67641;SHT31;54434;50.096;20.082;2023-04-24T08:50:03;25.68;26.59
67641;SHT31;54434;50.096;20.082;2023-04-24T08:52:42;25.60;27.46
67641;SHT31;54434;50.096;20.082;2023-04-24T08:55:20;25.38;27.07
67641;SHT31;54434;50.096;20.082;2023-04-24T08:57:59;25.10;26.02
67641;SHT31;54434;50.096;20.082;2023-04-24T09:00:36;24.82;25.91
67641;SHT31;54434;50.096;20.082;2023-04-24T09:03:18;24.51;26.57
67641;SHT31;54434;50.096;20.082;2023-04-24T09:05:57;24.34;27.81
67641;SHT31;54434;50.096;20.082;2023-04-24T09:08:36;24.31;27.08
67641;SHT31;54434;50.096;20.082;2023-04-24T09:11:17;24.33;27.24
67641;SHT31;54434;50.096;20.082;2023-04-24T09:13:55;24.49;27.18
67641;SHT31;54434;50.096;20.082;2023-04-24T09:16:33;24.39;25.93
67641;SHT31;54434;50.096;20.082;2023-04-24T09:19:10;24.20;26.15
67641;SHT31;54434;50.096;20.082;2023-04-24T09:21:47;23.98;26.41
67641;SHT31;54434;50.096;20.082;2023-04-24T09:24:27;23.81;27.14
67641;SHT31;54434;50.096;20.082;2023-04-24T09:27:03;23.69;27.42
67641;SHT31;54434;50.096;20.082;2023-04-24T09:29:56;23.66;27.95
67641;SHT31;54434;50.096;20.082;2023-04-24T09:32:35;23.68;27.66
67641;SHT31;54434;50.096;20.082;2023-04-24T09:35:12;23.60;27.61
67641;SHT31;54434;50.096;20.082;2023-04-24T09:37:50;23.43;26.97
67641;SHT31;54434;50.096;20.082;2023-04-24T09:40:27;23.17;26.95
67641;SHT31;54434;50.096;20.082;2023-04-24T09:43:10;23.02;27.04
67641;SHT31;54434;50.096;20.082;2023-04-24T09:45:47;22.99;26.94
67641;SHT31;54434;50.096;20.082;2023-04-24T09:48:35;22.91;27.90
67641;SHT31;54434;50.096;20.082;2023-04-24T09:51:12;22.83;27.75
67641;SHT31;54434;50.096;20.082;2023-04-24T09:53:48;22.86;27.54
67641;SHT31;54434;50.096;20.082;2023-04-24T09:56:29;22.95;28.23
67641;SHT31;54434;50.096;20.082;2023-04-24T09:59:08;23.00;27.50
67641;SHT31;54434;50.096;20.082;2023-04-24T10:01:46;23.01;27.32
67641;SHT31;54434;50.096;20.082;2023-04-24T10:04:25;23.07;27.35
67641;SHT31;54434;50.096;20.082;2023-04-24T10:07:03;23.21;27.98
67641;SHT31;54434;50.096;20.082;2023-04-24T10:09:42;23.40;28.35
67641;SHT31;54434;50.096;20.082;2023-04-24T10:12:18;23.57;26.92
67641;SHT31;54434;50.096;20.082;2023-04-24T10:14:56;23.54;27.02
67641;SHT31;54434;50.096;20.082;2023-04-24T10:17:34;23.56;26.01
67641;SHT31;54434;50.096;20.082;2023-04-24T10:20:12;23.58;25.87
67641;SHT31;54434;50.096;20.082;2023-04-24T10:22:53;23.51;26.33
67641;SHT31;54434;50.096;20.082;2023-04-24T10:25:32;23.57;28.26
67641;SHT31;54434;50.096;20.082;2023-04-24T10:28:09;23.71;27.01
67641;SHT31;54434;50.096;20.082;2023-04-24T10:30:47;23.92;27.48
67641;SHT31;54434;50.096;20.082;2023-04-24T10:33:27;23.95;25.70
67641;SHT31;54434;50.096;20.082;2023-04-24T10:36:10;23.98;27.59
67641;SHT31;54434;50.096;20.082;2023-04-24T10:38:59;24.15;26.48
67641;SHT31;54434;50.096;20.082;2023-04-24T10:41:41;24.29;26.80
67641;SHT31;54434;50.096;20.082;2023-04-24T10:44:18;24.28;26.37
67641;SHT31;54434;50.096;20.082;2023-04-24T10:46:58;24.41;28.07
67641;SHT31;54434;50.096;20.082;2023-04-24T10:49:36;24.57;28.44
67641;SHT31;54434;50.096;20.082;2023-04-24T10:52:13;24.64;28.18
67641;SHT31;54434;50.096;20.082;2023-04-24T10:54:50;24.65;27.51
67641;SHT31;54434;50.096;20.082;2023-04-24T10:57:30;24.57;26.73
67641;SHT31;54434;50.096;20.082;2023-04-24T11:00:15;24.55;27.27
67641;SHT31;54434;50.096;20.082;2023-04-24T11:02:54;24.46;27.12
67641;SHT31;54434;50.096;20.082;2023-04-24T11:05:51;24.34;28.27
67641;SHT31;54434;50.096;20.082;2023-04-24T11:08:32;24.26;28.46
67641;SHT31;54434;50.096;20.082;2023-04-24T11:11:16;24.16;28.79
67641;SHT31;54434;50.096;20.082;2023-04-24T11:14:09;24.13;28.50
67641;SHT31;54434;50.096;20.082;2023-04-24T11:16:54;24.14;29.13
67641;SHT31;54434;50.096;20.082;2023-04-24T11:19:33;24.19;29.65
67641;SHT31;54434;50.096;20.082;2023-04-24T11:22:15;24.24;29.18
67641;SHT31;54434;50.096;20.082;2023-04-24T11:24:54;24.24;28.80
67641;SHT31;54434;50.096;20.082;2023-04-24T11:27:40;24.06;26.95
67641;SHT31;54434;50.096;20.082;2023-04-24T11:30:20;23.84;27.30
67641;SHT31;54434;50.096;20.082;2023-04-24T11:33:04;23.70;26.23
67641;SHT31;54434;50.096;20.082;2023-04-24T11:35:41;23.57;27.00
67641;SHT31;54434;50.096;20.082;2023-04-24T11:38:19;23.53;26.70
67641;SHT31;54434;50.096;20.082;2023-04-24T11:40:57;23.55;27.21
67641;SHT31;54434;50.096;20.082;2023-04-24T11:43:39;23.63;29.54
67641;SHT31;54434;50.096;20.082;2023-04-24T11:46:19;23.78;29.77
67641;SHT31;54434;50.096;20.082;2023-04-24T11:49:00;23.86;29.03
67641;SHT31;54434;50.096;20.082;2023-04-24T11:51:36;23.95;29.88
67641;SHT31;54434;50.096;20.082;2023-04-24T11:54:24;24.00;28.06
67641;SHT31;54434;50.096;20.082;2023-04-24T11:57:01;23.99;28.71
67641;SHT31;54434;50.096;20.082;2023-04-24T11:59:40;23.93;28.56
67641;SHT31;54434;50.096;20.082;2023-04-24T12:02:24;23.84;28.24
67641;SHT31;54434;50.096;20.082;2023-04-24T12:05:01;23.81;28.70
67641;SHT31;54434;50.096;20.082;2023-04-24T12:07:42;23.83;29.65
67641;SHT31;54434;50.096;20.082;2023-04-24T12:10:23;23.83;29.41
67641;SHT31;54434;50.096;20.082;2023-04-24T12:13:02;23.79;29.07
67641;SHT31;54434;50.096;20.082;2023-04-24T12:15:42;23.79;28.98
67641;SHT31;54434;50.096;20.082;2023-04-24T12:18:18;23.83;28.29
67641;SHT31;54434;50.096;20.082;2023-04-24T12:21:16;23.83;28.40
67641;SHT31;54434;50.096;20.082;2023-04-24T12:23:58;23.81;28.87
67641;SHT31;54434;50.096;20.082;2023-04-24T12:26:41;23.78;28.55
67641;SHT31;54434;50.096;20.082;2023-04-24T12:29:22;23.73;29.10
67641;SHT31;54434;50.096;20.082;2023-04-24T12:31:59;23.73;28.93
67641;SHT31;54434;50.096;20.082;2023-04-24T12:34:36;23.64;29.70
67641;SHT31;54434;50.096;20.082;2023-04-24T12:37:13;23.51;28.74
67641;SHT31;54434;50.096;20.082;2023-04-24T12:40:03;23.31;29.04
67641;SHT31;54434;50.096;20.082;2023-04-24T12:42:45;23.15;29.79
67641;SHT31;54434;50.096;20.082;2023-04-24T12:45:23;23.08;30.21
67641;SHT31;54434;50.096;20.082;2023-04-24T12:47:59;22.96;30.08
67641;SHT31;54434;50.096;20.082;2023-04-24T12:50:36;22.86;29.95
67641;SHT31;54434;50.096;20.082;2023-04-24T12:53:18;22.75;29.85
67641;SHT31;54434;50.096;20.082;2023-04-24T12:55:53;22.66;30.29
67641;SHT31;54434;50.096;20.082;2023-04-24T12:58:29;22.62;30.86
67641;SHT31;54434;50.096;20.082;2023-04-24T13:01:06;22.59;30.50
67641;SHT31;54434;50.096;20.082;2023-04-24T13:03:43;22.53;30.85
67641;SHT31;54434;50.096;20.082;2023-04-24T13:06:20;22.50;32.16
67641;SHT31;54434;50.096;20.082;2023-04-24T13:08:58;22.42;32.28
67641;SHT31;54434;50.096;20.082;2023-04-24T13:11:35;22.29;31.70
67641;SHT31;54434;50.096;20.082;2023-04-24T13:14:11;22.19;32.17
67641;SHT31;54434;50.096;20.082;2023-04-24T13:16:47;22.15;32.88
67641;SHT31;54434;50.096;20.082;2023-04-24T13:19:25;22.12;33.59
67641;SHT31;54434;50.096;20.082;2023-04-24T13:22:03;21.96;34.61
67641;SHT31;54434;50.096;20.082;2023-04-24T13:24:39;21.65;36.03
67641;SHT31;54434;50.096;20.082;2023-04-24T13:27:16;21.29;37.03
67641;SHT31;54434;50.096;20.082;2023-04-24T13:29:53;20.96;37.88
67641;SHT31;54434;50.096;20.082;2023-04-24T13:32:29;20.68;38.51
67641;SHT31;54434;50.096;20.082;2023-04-24T13:35:08;20.46;39.45
67641;SHT31;54434;50.096;20.082;2023-04-24T13:37:44;20.24;40.54
67641;SHT31;54434;50.096;20.082;2023-04-24T13:40:21;20.04;41.80
67641;SHT31;54434;50.096;20.082;2023-04-24T13:42:57;19.82;42.37
67641;SHT31;54434;50.096;20.082;2023-04-24T13:45:34;19.66;42.83
67641;SHT31;54434;50.096;20.082;2023-04-24T13:48:11;19.53;43.37
67641;SHT31;54434;50.096;20.082;2023-04-24T13:50:47;19.44;43.47
67641;SHT31;54434;50.096;20.082;2023-04-24T13:53:24;19.37;43.54
67641;SHT31;54434;50.096;20.082;2023-04-24T13:56:00;19.31;43.42
67641;SHT31;54434;50.096;20.082;2023-04-24T13:58:37;19.21;42.68
67641;SHT31;54434;50.096;20.082;2023-04-24T14:01:14;19.11;42.75
67641;SHT31;54434;50.096;20.082;2023-04-24T14:03:50;19.09;42.86
67641;SHT31;54434;50.096;20.082;2023-04-24T14:06:29;19.06;42.64
67641;SHT31;54434;50.096;20.082;2023-04-24T14:09:05;18.98;42.93
67641;SHT31;54434;50.096;20.082;2023-04-24T14:11:42;18.95;43.42
67641;SHT31;54434;50.096;20.082;2023-04-24T14:14:18;18.91;43.50
67641;SHT31;54434;50.096;20.082;2023-04-24T14:16:54;18.86;43.77
67641;SHT31;54434;50.096;20.082;2023-04-24T14:19:31;18.79;43.63
67641;SHT31;54434;50.096;20.082;2023-04-24T14:22:07;18.71;43.72
67641;SHT31;54434;50.096;20.082;2023-04-24T14:24:44;18.65;43.92
67641;SHT31;54434;50.096;20.082;2023-04-24T14:27:20;18.58;43.75
67641;SHT31;54434;50.096;20.082;2023-04-24T14:29:57;18.52;44.38
67641;SHT31;54434;50.096;20.082;2023-04-24T14:32:33;18.48;44.73
67641;SHT31;54434;50.096;20.082;2023-04-24T14:35:10;18.39;44.94
67641;SHT31;54434;50.096;20.082;2023-04-24T14:37:47;18.35;45.91
67641;SHT31;54434;50.096;20.082;2023-04-24T14:40:23;18.28;46.51
67641;SHT31;54434;50.096;20.082;2023-04-24T14:43:20;18.22;46.86
67641;SHT31;54434;50.096;20.082;2023-04-24T14:45:56;18.17;47.01
67641;SHT31;54434;50.096;20.082;2023-04-24T14:48:33;18.12;47.24
67641;SHT31;54434;50.096;20.082;2023-04-24T14:51:09;18.10;48.05
67641;SHT31;54434;50.096;20.082;2023-04-24T14:53:45;18.09;47.88
67641;SHT31;54434;50.096;20.082;2023-04-24T14:56:22;18.10;48.17
67641;SHT31;54434;50.096;20.082;2023-04-24T14:58:59;18.08;48.10
67641;SHT31;54434;50.096;20.082;2023-04-24T15:01:35;18.06;47.84
67641;SHT31;54434;50.096;20.082;2023-04-24T15:04:12;18.04;47.57
67641;SHT31;54434;50.096;20.082;2023-04-24T15:06:49;18.00;47.40
67641;SHT31;54434;50.096;20.082;2023-04-24T15:09:25;17.96;47.56
67641;SHT31;54434;50.096;20.082;2023-04-24T15:12:04;17.93;48.11
67641;SHT31;54434;50.096;20.082;2023-04-24T15:14:41;17.95;48.77
67641;SHT31;54434;50.096;20.082;2023-04-24T15:17:17;17.99;48.36
67641;SHT31;54434;50.096;20.082;2023-04-24T15:19:54;17.96;47.97
67641;SHT31;54434;50.096;20.082;2023-04-24T15:22:31;17.95;47.64
67641;SHT31;54434;50.096;20.082;2023-04-24T15:25:09;17.95;47.67
67641;SHT31;54434;50.096;20.082;2023-04-24T15:27:46;17.93;47.84
67641;SHT31;54434;50.096;20.082;2023-04-24T15:30:23;17.94;48.50
67641;SHT31;54434;50.096;20.082;2023-04-24T15:33:00;17.98;48.23
67641;SHT31;54434;50.096;20.082;2023-04-24T15:35:37;17.99;48.31
67641;SHT31;54434;50.096;20.082;2023-04-24T15:38:13;17.97;48.28
67641;SHT31;54434;50.096;20.082;2023-04-24T15:40:50;17.94;48.07
67641;SHT31;54434;50.096;20.082;2023-04-24T15:43:26;17.87;48.64
67641;SHT31;54434;50.096;20.082;2023-04-24T15:46:05;17.79;48.84
67641;SHT31;54434;50.096;20.082;2023-04-24T15:48:42;17.76;49.24
67641;SHT31;54434;50.096;20.082;2023-04-24T15:51:19;17.68;49.12
67641;SHT31;54434;50.096;20.082;2023-04-24T15:53:55;17.63;49.47
67641;SHT31;54434;50.096;20.082;2023-04-24T15:56:32;17.57;49.57
67641;SHT31;54434;50.096;20.082;2023-04-24T15:59:09;17.58;49.75
67641;SHT31;54434;50.096;20.082;2023-04-24T16:01:45;17.51;50.64
67641;SHT31;54434;50.096;20.082;2023-04-24T16:04:22;17.43;51.31
67641;SHT31;54434;50.096;20.082;2023-04-24T16:06:59;17.37;51.61
67641;SHT31;54434;50.096;20.082;2023-04-24T16:09:36;17.37;51.88
67641;SHT31;54434;50.096;20.082;2023-04-24T16:12:13;17.30;51.72
67641;SHT31;54434;50.096;20.082;2023-04-24T16:14:49;17.21;51.35
67641;SHT31;54434;50.096;20.082;2023-04-24T16:17:26;17.12;51.39
67641;SHT31;54434;50.096;20.082;2023-04-24T16:20:03;17.06;51.79
67641;SHT31;54434;50.096;20.082;2023-04-24T16:22:41;17.01;51.91
67641;SHT31;54434;50.096;20.082;2023-04-24T16:25:18;16.96;52.27
67641;SHT31;54434;50.096;20.082;2023-04-24T16:27:54;16.89;52.49
67641;SHT31;54434;50.096;20.082;2023-04-24T16:30:31;16.87;52.42